sensor_id;sensor_type;location;lat;lon;timestamp;P1;durP1;ratioP1;P2;durP2;ratioP2
4049;SDS011;2039;50.894;6.888;2023-08-17T00:01:47;98.20;;;75.07;;
4049;SDS011;2039;50.894;6.888;2023-08-17T00:04:13;101.87;;;79.93;;
4049;SDS011;2039;50.894;6.888;2023-08-17T00:06:38;101.30;;;82.07;;
4049;SDS011;2039;50.894;6.888;2023-08-17T00:09:04;95.50;;;66.73;;
4049;SDS011;2039;50.894;6.888;2023-08-17T00:11:30;94.97;;;68.83;;
4049;SDS011;2039;50.894;6.888;2023-08-17T00:13:56;102.00;;;83.57;;
4049;SDS011;2039;50.894;6.888;2023-08-17T00:16:21;96.97;;;77.87;;
4049;SDS011;2039;50.894;6.888;2023-08-17T00:18:48;96.07;;;67.17;;
4049;SDS011;2039;50.894;6.888;2023-08-17T00:21:14;100.00;;;80.07;;
4049;SDS011;2039;50.894;6.888;2023-08-17T00:23:40;98.53;;;72.90;;
4049;SDS011;2039;50.894;6.888;2023-08-17T00:26:05;96.67;;;72.67;;
4049;SDS011;2039;50.894;6.888;2023-08-17T00:28:31;90.00;;;52.63;;
4049;SDS011;2039;50.894;6.888;2023-08-17T00:30:57;99.23;;;75.97;;
4049;SDS011;2039;50.894;6.888;2023-08-17T00:33:24;96.07;;;62.17;;
4049;SDS011;2039;50.894;6.888;2023-08-17T00:35:50;91.33;;;58.57;;
4049;SDS011;2039;50.894;6.888;2023-08-17T00:38:15;88.77;;;54.57;;
4049;SDS011;2039;50.894;6.888;2023-08-17T00:40:41;94.47;;;64.40;;
4049;SDS011;2039;50.894;6.888;2023-08-17T00:43:07;97.37;;;71.10;;
4049;SDS011;2039;50.894;6.888;2023-08-17T00:45:32;100.03;;;79.93;;
4049;SDS011;2039;50.894;6.888;2023-08-17T00:47:59;123.50;;;110.80;;
4049;SDS011;2039;50.894;6.888;2023-08-17T00:50:25;124.37;;;111.93;;
4049;SDS011;2039;50.894;6.888;2023-08-17T00:52:51;123.03;;;110.33;;
4049;SDS011;2039;50.894;6.888;2023-08-17T00:55:18;131.27;;;118.40;;
4049;SDS011;2039;50.894;6.888;2023-08-17T00:57:44;127.33;;;114.57;;
4049;SDS011;2039;50.894;6.888;2023-08-17T01:00:11;130.77;;;117.70;;
4049;SDS011;2039;50.894;6.888;2023-08-17T01:02:39;136.93;;;123.90;;
4049;SDS011;2039;50.894;6.888;2023-08-17T01:05:06;136.90;;;123.93;;
4049;SDS011;2039;50.894;6.888;2023-08-17T01:07:32;136.60;;;123.40;;
4049;SDS011;2039;50.894;6.888;2023-08-17T01:09:58;151.63;;;137.93;;
4049;SDS011;2039;50.894;6.888;2023-08-17T01:15:24;144.13;;;130.57;;
4049;SDS011;2039;50.894;6.888;2023-08-17T01:18:39;140.20;;;126.90;;
4049;SDS011;2039;50.894;6.888;2023-08-17T01:20:53;137.80;;;124.73;;
4049;SDS011;2039;50.894;6.888;2023-08-17T01:23:20;136.60;;;123.63;;
4049;SDS011;2039;50.894;6.888;2023-08-17T01:25:47;113.00;;;100.87;;
4049;SDS011;2039;50.894;6.888;2023-08-17T01:28:13;129.07;;;116.27;;
4049;SDS011;2039;50.894;6.888;2023-08-17T01:31:00;112.40;;;100.27;;
4049;SDS011;2039;50.894;6.888;2023-08-17T01:33:50;133.50;;;120.33;;
4049;SDS011;2039;50.894;6.888;2023-08-17T01:36:22;134.47;;;121.30;;
4049;SDS011;2039;50.894;6.888;2023-08-17T01:38:55;135.77;;;122.67;;
4049;SDS011;2039;50.894;6.888;2023-08-17T01:41:22;121.63;;;109.17;;
4049;SDS011;2039;50.894;6.888;2023-08-17T01:43:50;134.90;;;121.83;;
4049;SDS011;2039;50.894;6.888;2023-08-17T01:46:17;125.60;;;113.00;;
4049;SDS011;2039;50.894;6.888;2023-08-17T01:48:44;124.40;;;111.63;;
4049;SDS011;2039;50.894;6.888;2023-08-17T01:51:10;120.03;;;107.27;;
4049;SDS011;2039;50.894;6.888;2023-08-17T01:53:37;105.30;;;91.13;;
4049;SDS011;2039;50.894;6.888;2023-08-17T01:56:02;103.23;;;86.10;;
4049;SDS011;2039;50.894;6.888;2023-08-17T01:58:28;105.57;;;92.33;;
4049;SDS011;2039;50.894;6.888;2023-08-17T02:00:54;104.27;;;92.77;;
4049;SDS011;2039;50.894;6.888;2023-08-17T02:03:19;117.90;;;105.50;;
4049;SDS011;2039;50.894;6.888;2023-08-17T02:05:45;104.73;;;90.37;;
4049;SDS011;2039;50.894;6.888;2023-08-17T02:08:12;98.40;;;77.23;;
4049;SDS011;2039;50.894;6.888;2023-08-17T02:10:37;94.47;;;67.87;;
4049;SDS011;2039;50.894;6.888;2023-08-17T02:13:03;97.83;;;75.07;;
4049;SDS011;2039;50.894;6.888;2023-08-17T02:15:29;97.67;;;77.37;;
4049;SDS011;2039;50.894;6.888;2023-08-17T02:17:56;96.20;;;71.37;;
4049;SDS011;2039;50.894;6.888;2023-08-17T02:20:22;93.03;;;63.17;;
4049;SDS011;2039;50.894;6.888;2023-08-17T02:22:48;96.13;;;75.07;;
4049;SDS011;2039;50.894;6.888;2023-08-17T02:25:13;99.20;;;75.53;;
4049;SDS011;2039;50.894;6.888;2023-08-17T02:27:39;95.43;;;66.67;;
4049;SDS011;2039;50.894;6.888;2023-08-17T02:30:08;103.30;;;75.87;;
4049;SDS011;2039;50.894;6.888;2023-08-17T02:32:34;97.67;;;63.03;;
4049;SDS011;2039;50.894;6.888;2023-08-17T02:35:00;87.83;;;47.30;;
4049;SDS011;2039;50.894;6.888;2023-08-17T02:37:25;89.13;;;48.70;;
4049;SDS011;2039;50.894;6.888;2023-08-17T02:39:51;88.27;;;48.90;;
4049;SDS011;2039;50.894;6.888;2023-08-17T02:42:16;88.63;;;49.67;;
4049;SDS011;2039;50.894;6.888;2023-08-17T02:44:42;87.83;;;49.20;;
4049;SDS011;2039;50.894;6.888;2023-08-17T02:47:08;89.53;;;40.50;;
4049;SDS011;2039;50.894;6.888;2023-08-17T02:49:33;86.20;;;39.67;;
4049;SDS011;2039;50.894;6.888;2023-08-17T02:52:00;84.03;;;41.30;;
4049;SDS011;2039;50.894;6.888;2023-08-17T02:54:26;86.20;;;45.83;;
4049;SDS011;2039;50.894;6.888;2023-08-17T02:56:51;89.20;;;51.93;;
4049;SDS011;2039;50.894;6.888;2023-08-17T02:59:17;88.23;;;50.13;;
4049;SDS011;2039;50.894;6.888;2023-08-17T03:01:43;86.00;;;44.10;;
4049;SDS011;2039;50.894;6.888;2023-08-17T03:04:10;88.90;;;45.30;;
4049;SDS011;2039;50.894;6.888;2023-08-17T03:06:36;90.20;;;43.23;;
4049;SDS011;2039;50.894;6.888;2023-08-17T03:09:02;91.27;;;49.67;;
4049;SDS011;2039;50.894;6.888;2023-08-17T03:11:27;88.97;;;51.37;;
4049;SDS011;2039;50.894;6.888;2023-08-17T03:13:53;89.13;;;52.57;;
4049;SDS011;2039;50.894;6.888;2023-08-17T03:16:25;89.57;;;46.70;;
4049;SDS011;2039;50.894;6.888;2023-08-17T03:18:51;89.70;;;51.47;;
4049;SDS011;2039;50.894;6.888;2023-08-17T03:21:17;91.40;;;51.93;;
4049;SDS011;2039;50.894;6.888;2023-08-17T03:23:43;85.17;;;42.03;;
4049;SDS011;2039;50.894;6.888;2023-08-17T03:26:09;85.23;;;36.57;;
4049;SDS011;2039;50.894;6.888;2023-08-17T03:28:35;90.47;;;47.77;;
4049;SDS011;2039;50.894;6.888;2023-08-17T03:31:01;86.33;;;38.60;;
4049;SDS011;2039;50.894;6.888;2023-08-17T03:33:28;86.10;;;42.17;;
4049;SDS011;2039;50.894;6.888;2023-08-17T03:35:53;86.90;;;42.00;;
4049;SDS011;2039;50.894;6.888;2023-08-17T03:38:19;82.07;;;34.70;;
4049;SDS011;2039;50.894;6.888;2023-08-17T03:40:45;85.60;;;44.23;;
4049;SDS011;2039;50.894;6.888;2023-08-17T03:43:15;86.83;;;45.33;;
4049;SDS011;2039;50.894;6.888;2023-08-17T03:45:41;92.30;;;59.33;;
4049;SDS011;2039;50.894;6.888;2023-08-17T03:48:07;89.97;;;54.17;;
4049;SDS011;2039;50.894;6.888;2023-08-17T03:50:33;90.93;;;53.97;;
4049;SDS011;2039;50.894;6.888;2023-08-17T03:52:59;100.20;;;76.67;;
4049;SDS011;2039;50.894;6.888;2023-08-17T03:55:24;99.23;;;77.70;;
4049;SDS011;2039;50.894;6.888;2023-08-17T03:57:50;100.13;;;82.23;;
4049;SDS011;2039;50.894;6.888;2023-08-17T04:00:16;104.37;;;91.70;;
4049;SDS011;2039;50.894;6.888;2023-08-17T04:02:42;120.57;;;108.17;;
4049;SDS011;2039;50.894;6.888;2023-08-17T04:05:08;110.63;;;98.93;;
4049;SDS011;2039;50.894;6.888;2023-08-17T04:07:34;110.83;;;98.97;;
4049;SDS011;2039;50.894;6.888;2023-08-17T04:09:59;112.33;;;100.37;;
4049;SDS011;2039;50.894;6.888;2023-08-17T04:12:25;114.93;;;102.50;;
4049;SDS011;2039;50.894;6.888;2023-08-17T04:14:51;114.20;;;101.73;;
4049;SDS011;2039;50.894;6.888;2023-08-17T04:17:16;134.47;;;121.27;;
4049;SDS011;2039;50.894;6.888;2023-08-17T04:19:42;138.47;;;125.07;;
4049;SDS011;2039;50.894;6.888;2023-08-17T04:22:08;139.13;;;125.33;;
4049;SDS011;2039;50.894;6.888;2023-08-17T04:24:34;152.73;;;137.90;;
4049;SDS011;2039;50.894;6.888;2023-08-17T04:26:59;140.50;;;126.60;;
4049;SDS011;2039;50.894;6.888;2023-08-17T04:29:25;139.93;;;126.20;;
4049;SDS011;2039;50.894;6.888;2023-08-17T04:31:51;128.83;;;115.70;;
4049;SDS011;2039;50.894;6.888;2023-08-17T04:34:16;129.97;;;116.70;;
4049;SDS011;2039;50.894;6.888;2023-08-17T04:36:42;144.23;;;130.23;;
4049;SDS011;2039;50.894;6.888;2023-08-17T04:39:08;135.60;;;121.97;;
4049;SDS011;2039;50.894;6.888;2023-08-17T04:41:34;137.50;;;123.80;;
4049;SDS011;2039;50.894;6.888;2023-08-17T04:44:00;140.97;;;127.23;;
4049;SDS011;2039;50.894;6.888;2023-08-17T04:46:25;141.70;;;127.93;;
4049;SDS011;2039;50.894;6.888;2023-08-17T04:48:51;134.90;;;121.37;;
4049;SDS011;2039;50.894;6.888;2023-08-17T04:51:17;137.87;;;123.90;;
4049;SDS011;2039;50.894;6.888;2023-08-17T04:53:43;148.23;;;134.00;;
4049;SDS011;2039;50.894;6.888;2023-08-17T04:56:09;145.90;;;131.77;;
4049;SDS011;2039;50.894;6.888;2023-08-17T04:58:34;139.10;;;125.17;;
4049;SDS011;2039;50.894;6.888;2023-08-17T05:01:03;138.40;;;124.47;;
4049;SDS011;2039;50.894;6.888;2023-08-17T05:03:28;139.07;;;125.07;;
4049;SDS011;2039;50.894;6.888;2023-08-17T05:05:55;134.90;;;121.43;;
4049;SDS011;2039;50.894;6.888;2023-08-17T05:08:21;132.53;;;119.10;;
4049;SDS011;2039;50.894;6.888;2023-08-17T05:10:47;129.03;;;115.57;;
4049;SDS011;2039;50.894;6.888;2023-08-17T05:13:13;132.90;;;119.53;;
4049;SDS011;2039;50.894;6.888;2023-08-17T05:15:39;127.73;;;114.27;;
4049;SDS011;2039;50.894;6.888;2023-08-17T05:18:05;113.17;;;100.83;;
4049;SDS011;2039;50.894;6.888;2023-08-17T05:20:30;115.57;;;102.70;;
4049;SDS011;2039;50.894;6.888;2023-08-17T05:22:56;114.13;;;101.93;;
4049;SDS011;2039;50.894;6.888;2023-08-17T05:25:22;109.87;;;94.90;;
4049;SDS011;2039;50.894;6.888;2023-08-17T05:27:48;100.47;;;80.30;;
4049;SDS011;2039;50.894;6.888;2023-08-17T05:30:16;106.63;;;91.20;;
4049;SDS011;2039;50.894;6.888;2023-08-17T05:32:42;107.23;;;91.80;;
4049;SDS011;2039;50.894;6.888;2023-08-17T05:35:08;107.73;;;91.37;;
4049;SDS011;2039;50.894;6.888;2023-08-17T05:37:33;103.37;;;81.77;;
4049;SDS011;2039;50.894;6.888;2023-08-17T05:39:59;109.23;;;97.30;;
4049;SDS011;2039;50.894;6.888;2023-08-17T05:42:25;113.77;;;101.33;;
4049;SDS011;2039;50.894;6.888;2023-08-17T05:44:50;106.13;;;92.83;;
4049;SDS011;2039;50.894;6.888;2023-08-17T05:47:16;104.90;;;91.47;;
4049;SDS011;2039;50.894;6.888;2023-08-17T05:49:44;105.73;;;90.00;;
4049;SDS011;2039;50.894;6.888;2023-08-17T05:52:09;106.53;;;93.67;;
4049;SDS011;2039;50.894;6.888;2023-08-17T05:54:35;105.10;;;88.17;;
4049;SDS011;2039;50.894;6.888;2023-08-17T05:57:01;108.43;;;90.07;;
4049;SDS011;2039;50.894;6.888;2023-08-17T05:59:28;104.83;;;86.90;;
4049;SDS011;2039;50.894;6.888;2023-08-17T06:01:53;99.70;;;75.63;;
4049;SDS011;2039;50.894;6.888;2023-08-17T06:04:19;100.80;;;70.00;;
4049;SDS011;2039;50.894;6.888;2023-08-17T06:06:45;100.73;;;82.83;;
4049;SDS011;2039;50.894;6.888;2023-08-17T06:09:11;100.77;;;75.27;;
4049;SDS011;2039;50.894;6.888;2023-08-17T06:11:37;96.73;;;65.87;;
4049;SDS011;2039;50.894;6.888;2023-08-17T06:14:03;93.57;;;61.10;;
4049;SDS011;2039;50.894;6.888;2023-08-17T06:16:29;91.63;;;59.77;;
4049;SDS011;2039;50.894;6.888;2023-08-17T06:18:55;91.33;;;50.17;;
4049;SDS011;2039;50.894;6.888;2023-08-17T06:21:21;86.83;;;45.87;;
4049;SDS011;2039;50.894;6.888;2023-08-17T06:23:46;87.83;;;43.47;;
4049;SDS011;2039;50.894;6.888;2023-08-17T06:26:12;94.97;;;46.17;;
4049;SDS011;2039;50.894;6.888;2023-08-17T06:28:38;86.33;;;43.67;;
4049;SDS011;2039;50.894;6.888;2023-08-17T06:31:03;89.03;;;46.80;;
4049;SDS011;2039;50.894;6.888;2023-08-17T06:33:29;86.07;;;37.80;;
4049;SDS011;2039;50.894;6.888;2023-08-17T06:35:55;88.20;;;42.33;;
4049;SDS011;2039;50.894;6.888;2023-08-17T06:38:20;85.90;;;40.47;;
4049;SDS011;2039;50.894;6.888;2023-08-17T06:40:46;84.43;;;34.90;;
4049;SDS011;2039;50.894;6.888;2023-08-17T06:43:12;85.00;;;38.37;;
4049;SDS011;2039;50.894;6.888;2023-08-17T06:45:38;84.70;;;30.07;;
4049;SDS011;2039;50.894;6.888;2023-08-17T06:48:04;81.30;;;25.33;;
4049;SDS011;2039;50.894;6.888;2023-08-17T06:50:30;81.97;;;26.00;;
4049;SDS011;2039;50.894;6.888;2023-08-17T06:52:56;82.50;;;29.50;;
4049;SDS011;2039;50.894;6.888;2023-08-17T06:55:21;81.97;;;27.47;;
4049;SDS011;2039;50.894;6.888;2023-08-17T06:57:47;81.07;;;22.80;;
4049;SDS011;2039;50.894;6.888;2023-08-17T07:00:16;77.53;;;18.07;;
4049;SDS011;2039;50.894;6.888;2023-08-17T07:02:45;78.50;;;19.30;;
4049;SDS011;2039;50.894;6.888;2023-08-17T07:05:15;80.13;;;18.63;;
4049;SDS011;2039;50.894;6.888;2023-08-17T07:07:41;78.60;;;13.30;;
4049;SDS011;2039;50.894;6.888;2023-08-17T07:10:07;76.90;;;15.97;;
4049;SDS011;2039;50.894;6.888;2023-08-17T07:12:34;77.77;;;18.00;;
4049;SDS011;2039;50.894;6.888;2023-08-17T07:14:59;78.47;;;20.73;;
4049;SDS011;2039;50.894;6.888;2023-08-17T07:17:25;80.20;;;21.70;;
4049;SDS011;2039;50.894;6.888;2023-08-17T07:19:51;82.90;;;20.10;;
4049;SDS011;2039;50.894;6.888;2023-08-17T07:22:16;79.73;;;21.10;;
4049;SDS011;2039;50.894;6.888;2023-08-17T07:24:45;80.47;;;24.13;;
4049;SDS011;2039;50.894;6.888;2023-08-17T07:27:10;80.23;;;24.00;;
4049;SDS011;2039;50.894;6.888;2023-08-17T07:29:36;78.27;;;23.83;;
4049;SDS011;2039;50.894;6.888;2023-08-17T07:32:02;80.07;;;24.03;;
4049;SDS011;2039;50.894;6.888;2023-08-17T07:34:28;80.37;;;25.10;;
4049;SDS011;2039;50.894;6.888;2023-08-17T07:37:23;81.67;;;23.20;;
4049;SDS011;2039;50.894;6.888;2023-08-17T07:39:48;85.80;;;27.03;;
4049;SDS011;2039;50.894;6.888;2023-08-17T07:42:14;82.57;;;26.23;;
4049;SDS011;2039;50.894;6.888;2023-08-17T07:44:40;81.20;;;25.03;;
4049;SDS011;2039;50.894;6.888;2023-08-17T07:47:07;81.80;;;26.30;;
4049;SDS011;2039;50.894;6.888;2023-08-17T07:49:32;84.37;;;24.90;;
4049;SDS011;2039;50.894;6.888;2023-08-17T07:51:58;80.30;;;23.37;;
4049;SDS011;2039;50.894;6.888;2023-08-17T07:54:24;82.07;;;25.23;;
4049;SDS011;2039;50.894;6.888;2023-08-17T07:56:50;83.10;;;25.30;;
4049;SDS011;2039;50.894;6.888;2023-08-17T07:59:18;83.47;;;25.80;;
4049;SDS011;2039;50.894;6.888;2023-08-17T08:01:44;85.47;;;26.23;;
4049;SDS011;2039;50.894;6.888;2023-08-17T08:04:10;85.00;;;23.27;;
4049;SDS011;2039;50.894;6.888;2023-08-17T08:06:35;82.40;;;27.37;;
4049;SDS011;2039;50.894;6.888;2023-08-17T08:09:01;81.60;;;26.80;;
4049;SDS011;2039;50.894;6.888;2023-08-17T08:11:27;85.07;;;26.47;;
4049;SDS011;2039;50.894;6.888;2023-08-17T08:13:55;86.67;;;31.07;;
4049;SDS011;2039;50.894;6.888;2023-08-17T08:16:20;83.63;;;32.10;;
4049;SDS011;2039;50.894;6.888;2023-08-17T08:18:46;80.70;;;25.97;;
4049;SDS011;2039;50.894;6.888;2023-08-17T08:21:12;85.30;;;30.00;;
4049;SDS011;2039;50.894;6.888;2023-08-17T08:23:37;79.03;;;21.93;;
4049;SDS011;2039;50.894;6.888;2023-08-17T08:26:03;86.57;;;27.67;;
4049;SDS011;2039;50.894;6.888;2023-08-17T08:28:28;81.73;;;27.17;;
4049;SDS011;2039;50.894;6.888;2023-08-17T08:30:54;86.83;;;28.60;;
4049;SDS011;2039;50.894;6.888;2023-08-17T08:33:20;82.37;;;26.80;;
4049;SDS011;2039;50.894;6.888;2023-08-17T08:35:45;82.80;;;27.60;;
4049;SDS011;2039;50.894;6.888;2023-08-17T08:38:11;84.13;;;28.57;;
4049;SDS011;2039;50.894;6.888;2023-08-17T08:40:37;82.97;;;27.20;;
4049;SDS011;2039;50.894;6.888;2023-08-17T08:43:05;83.40;;;28.47;;
4049;SDS011;2039;50.894;6.888;2023-08-17T08:45:35;83.20;;;27.90;;
4049;SDS011;2039;50.894;6.888;2023-08-17T08:48:02;83.70;;;32.80;;
4049;SDS011;2039;50.894;6.888;2023-08-17T08:50:30;86.90;;;29.43;;
4049;SDS011;2039;50.894;6.888;2023-08-17T08:53:02;83.20;;;27.77;;
4049;SDS011;2039;50.894;6.888;2023-08-17T08:55:34;88.87;;;30.30;;
4049;SDS011;2039;50.894;6.888;2023-08-17T08:58:04;87.90;;;32.37;;
4049;SDS011;2039;50.894;6.888;2023-08-17T09:00:30;96.43;;;31.70;;
4049;SDS011;2039;50.894;6.888;2023-08-17T09:02:58;89.93;;;31.50;;
4049;SDS011;2039;50.894;6.888;2023-08-17T09:05:26;87.30;;;30.30;;
4049;SDS011;2039;50.894;6.888;2023-08-17T09:07:52;88.90;;;31.60;;
4049;SDS011;2039;50.894;6.888;2023-08-17T09:10:18;91.00;;;29.07;;
4049;SDS011;2039;50.894;6.888;2023-08-17T09:12:45;86.20;;;30.10;;
4049;SDS011;2039;50.894;6.888;2023-08-17T09:15:12;86.47;;;30.83;;
4049;SDS011;2039;50.894;6.888;2023-08-17T09:17:38;88.70;;;30.60;;
4049;SDS011;2039;50.894;6.888;2023-08-17T09:20:03;86.67;;;29.67;;
4049;SDS011;2039;50.894;6.888;2023-08-17T09:22:41;90.10;;;30.10;;
4049;SDS011;2039;50.894;6.888;2023-08-17T09:25:09;85.97;;;29.33;;
4049;SDS011;2039;50.894;6.888;2023-08-17T09:27:36;87.80;;;30.37;;
4049;SDS011;2039;50.894;6.888;2023-08-17T09:30:06;89.13;;;30.97;;
4049;SDS011;2039;50.894;6.888;2023-08-17T09:32:34;93.33;;;30.87;;
4049;SDS011;2039;50.894;6.888;2023-08-17T09:35:00;88.97;;;30.67;;
4049;SDS011;2039;50.894;6.888;2023-08-17T09:37:27;87.87;;;28.60;;
4049;SDS011;2039;50.894;6.888;2023-08-17T09:39:53;89.30;;;29.50;;
4049;SDS011;2039;50.894;6.888;2023-08-17T09:42:20;88.20;;;26.83;;
4049;SDS011;2039;50.894;6.888;2023-08-17T09:44:47;90.83;;;27.13;;
4049;SDS011;2039;50.894;6.888;2023-08-17T09:47:16;89.33;;;28.80;;
4049;SDS011;2039;50.894;6.888;2023-08-17T09:49:53;87.80;;;29.80;;
4049;SDS011;2039;50.894;6.888;2023-08-17T09:52:21;91.20;;;31.93;;
4049;SDS011;2039;50.894;6.888;2023-08-17T09:54:48;91.53;;;31.30;;
4049;SDS011;2039;50.894;6.888;2023-08-17T09:57:15;92.20;;;29.90;;
4049;SDS011;2039;50.894;6.888;2023-08-17T09:59:41;88.80;;;28.43;;
4049;SDS011;2039;50.894;6.888;2023-08-17T10:02:14;88.17;;;30.23;;
4049;SDS011;2039;50.894;6.888;2023-08-17T10:04:44;93.53;;;33.43;;
4049;SDS011;2039;50.894;6.888;2023-08-17T10:07:15;92.07;;;31.40;;
4049;SDS011;2039;50.894;6.888;2023-08-17T10:09:45;94.23;;;30.77;;
4049;SDS011;2039;50.894;6.888;2023-08-17T10:12:18;89.33;;;30.90;;
4049;SDS011;2039;50.894;6.888;2023-08-17T10:14:49;89.47;;;30.33;;
4049;SDS011;2039;50.894;6.888;2023-08-17T10:17:26;90.87;;;35.70;;
4049;SDS011;2039;50.894;6.888;2023-08-17T10:19:58;90.07;;;34.77;;
4049;SDS011;2039;50.894;6.888;2023-08-17T10:22:35;90.63;;;30.80;;
4049;SDS011;2039;50.894;6.888;2023-08-17T10:25:03;94.17;;;32.93;;
4049;SDS011;2039;50.894;6.888;2023-08-17T10:27:32;94.17;;;36.03;;
4049;SDS011;2039;50.894;6.888;2023-08-17T10:29:59;94.77;;;32.17;;
4049;SDS011;2039;50.894;6.888;2023-08-17T10:32:26;89.47;;;32.53;;
4049;SDS011;2039;50.894;6.888;2023-08-17T10:34:53;87.20;;;28.83;;
4049;SDS011;2039;50.894;6.888;2023-08-17T10:37:20;89.37;;;28.03;;
4049;SDS011;2039;50.894;6.888;2023-08-17T10:39:47;87.43;;;26.57;;
4049;SDS011;2039;50.894;6.888;2023-08-17T10:42:14;90.67;;;30.40;;
4049;SDS011;2039;50.894;6.888;2023-08-17T10:47:19;88.73;;;27.47;;
4049;SDS011;2039;50.894;6.888;2023-08-17T10:52:27;87.07;;;30.50;;
4049;SDS011;2039;50.894;6.888;2023-08-17T10:54:57;90.00;;;29.97;;
4049;SDS011;2039;50.894;6.888;2023-08-17T10:57:31;87.47;;;30.93;;
4049;SDS011;2039;50.894;6.888;2023-08-17T11:00:07;93.30;;;34.63;;
4049;SDS011;2039;50.894;6.888;2023-08-17T11:02:35;92.00;;;29.87;;
4049;SDS011;2039;50.894;6.888;2023-08-17T11:05:02;90.20;;;27.07;;
4049;SDS011;2039;50.894;6.888;2023-08-17T11:07:38;90.80;;;30.83;;
4049;SDS011;2039;50.894;6.888;2023-08-17T11:12:45;97.07;;;35.53;;
4049;SDS011;2039;50.894;6.888;2023-08-17T11:15:11;90.40;;;31.43;;
4049;SDS011;2039;50.894;6.888;2023-08-17T11:17:37;88.30;;;29.30;;
4049;SDS011;2039;50.894;6.888;2023-08-17T11:20:03;103.30;;;33.03;;
4049;SDS011;2039;50.894;6.888;2023-08-17T11:22:29;95.00;;;32.23;;
4049;SDS011;2039;50.894;6.888;2023-08-17T11:24:55;89.70;;;29.23;;
4049;SDS011;2039;50.894;6.888;2023-08-17T11:27:21;90.37;;;32.50;;
4049;SDS011;2039;50.894;6.888;2023-08-17T11:29:47;97.10;;;33.67;;
4049;SDS011;2039;50.894;6.888;2023-08-17T11:32:15;95.67;;;35.23;;
4049;SDS011;2039;50.894;6.888;2023-08-17T11:34:42;93.13;;;36.67;;
4049;SDS011;2039;50.894;6.888;2023-08-17T11:37:10;93.10;;;36.90;;
4049;SDS011;2039;50.894;6.888;2023-08-17T11:39:36;91.60;;;35.10;;
4049;SDS011;2039;50.894;6.888;2023-08-17T11:42:02;97.43;;;35.53;;
4049;SDS011;2039;50.894;6.888;2023-08-17T11:44:29;91.53;;;33.43;;
4049;SDS011;2039;50.894;6.888;2023-08-17T11:46:54;91.53;;;35.60;;
4049;SDS011;2039;50.894;6.888;2023-08-17T11:49:20;91.10;;;35.93;;
4049;SDS011;2039;50.894;6.888;2023-08-17T11:51:49;93.13;;;39.17;;
4049;SDS011;2039;50.894;6.888;2023-08-17T11:54:16;95.40;;;42.20;;
4049;SDS011;2039;50.894;6.888;2023-08-17T11:56:41;92.13;;;41.23;;
4049;SDS011;2039;50.894;6.888;2023-08-17T11:59:08;96.27;;;39.30;;
4049;SDS011;2039;50.894;6.888;2023-08-17T12:01:36;95.63;;;47.30;;
4049;SDS011;2039;50.894;6.888;2023-08-17T12:04:03;93.10;;;42.43;;
4049;SDS011;2039;50.894;6.888;2023-08-17T12:06:30;92.87;;;43.50;;
4049;SDS011;2039;50.894;6.888;2023-08-17T12:08:56;91.67;;;41.30;;
4049;SDS011;2039;50.894;6.888;2023-08-17T12:11:25;92.80;;;37.07;;
4049;SDS011;2039;50.894;6.888;2023-08-17T12:13:51;91.67;;;36.53;;
4049;SDS011;2039;50.894;6.888;2023-08-17T12:16:17;91.27;;;35.60;;
4049;SDS011;2039;50.894;6.888;2023-08-17T12:18:51;90.10;;;31.77;;
4049;SDS011;2039;50.894;6.888;2023-08-17T12:21:21;88.93;;;32.50;;
4049;SDS011;2039;50.894;6.888;2023-08-17T12:23:47;90.57;;;34.60;;
4049;SDS011;2039;50.894;6.888;2023-08-17T12:26:22;93.27;;;33.60;;
4049;SDS011;2039;50.894;6.888;2023-08-17T12:28:51;92.13;;;38.13;;
4049;SDS011;2039;50.894;6.888;2023-08-17T12:31:20;90.97;;;35.10;;
4049;SDS011;2039;50.894;6.888;2023-08-17T12:33:47;92.63;;;38.40;;
4049;SDS011;2039;50.894;6.888;2023-08-17T12:36:13;90.07;;;31.90;;
4049;SDS011;2039;50.894;6.888;2023-08-17T12:38:39;89.30;;;29.77;;
4049;SDS011;2039;50.894;6.888;2023-08-17T12:41:09;93.43;;;33.10;;
4049;SDS011;2039;50.894;6.888;2023-08-17T12:43:36;89.93;;;32.67;;
4049;SDS011;2039;50.894;6.888;2023-08-17T12:46:02;91.70;;;33.23;;
4049;SDS011;2039;50.894;6.888;2023-08-17T12:48:28;91.87;;;34.17;;
4049;SDS011;2039;50.894;6.888;2023-08-17T12:50:53;88.63;;;32.10;;
4049;SDS011;2039;50.894;6.888;2023-08-17T12:53:19;87.27;;;29.97;;
4049;SDS011;2039;50.894;6.888;2023-08-17T12:55:45;87.57;;;28.63;;
4049;SDS011;2039;50.894;6.888;2023-08-17T12:58:10;92.30;;;32.00;;
4049;SDS011;2039;50.894;6.888;2023-08-17T13:00:36;86.40;;;27.63;;
4049;SDS011;2039;50.894;6.888;2023-08-17T13:03:02;86.83;;;28.00;;
4049;SDS011;2039;50.894;6.888;2023-08-17T13:05:28;87.73;;;25.43;;
4049;SDS011;2039;50.894;6.888;2023-08-17T13:07:54;83.77;;;23.67;;
4049;SDS011;2039;50.894;6.888;2023-08-17T13:10:19;87.17;;;25.43;;
4049;SDS011;2039;50.894;6.888;2023-08-17T13:12:45;84.70;;;24.10;;
4049;SDS011;2039;50.894;6.888;2023-08-17T13:15:12;84.77;;;24.60;;
4049;SDS011;2039;50.894;6.888;2023-08-17T13:17:38;86.90;;;23.87;;
4049;SDS011;2039;50.894;6.888;2023-08-17T13:20:04;86.03;;;22.90;;
4049;SDS011;2039;50.894;6.888;2023-08-17T13:22:31;91.80;;;25.77;;
4049;SDS011;2039;50.894;6.888;2023-08-17T13:24:57;83.30;;;20.27;;
4049;SDS011;2039;50.894;6.888;2023-08-17T13:27:23;83.90;;;19.07;;
4049;SDS011;2039;50.894;6.888;2023-08-17T13:29:48;82.37;;;17.33;;
4049;SDS011;2039;50.894;6.888;2023-08-17T13:32:14;84.50;;;20.00;;
4049;SDS011;2039;50.894;6.888;2023-08-17T13:34:40;81.90;;;18.37;;
4049;SDS011;2039;50.894;6.888;2023-08-17T13:37:05;83.53;;;19.47;;
4049;SDS011;2039;50.894;6.888;2023-08-17T13:39:31;85.67;;;20.20;;
4049;SDS011;2039;50.894;6.888;2023-08-17T13:41:57;87.00;;;21.00;;
4049;SDS011;2039;50.894;6.888;2023-08-17T13:44:23;82.13;;;18.97;;
4049;SDS011;2039;50.894;6.888;2023-08-17T13:46:48;82.33;;;18.07;;
4049;SDS011;2039;50.894;6.888;2023-08-17T13:49:14;84.73;;;18.63;;
4049;SDS011;2039;50.894;6.888;2023-08-17T13:51:40;84.23;;;19.20;;
4049;SDS011;2039;50.894;6.888;2023-08-17T13:54:05;81.27;;;16.83;;
4049;SDS011;2039;50.894;6.888;2023-08-17T13:56:31;82.57;;;18.90;;
4049;SDS011;2039;50.894;6.888;2023-08-17T13:58:57;85.87;;;17.33;;
4049;SDS011;2039;50.894;6.888;2023-08-17T14:01:22;85.97;;;16.87;;
4049;SDS011;2039;50.894;6.888;2023-08-17T14:03:48;83.60;;;17.27;;
4049;SDS011;2039;50.894;6.888;2023-08-17T14:06:14;82.70;;;19.80;;
4049;SDS011;2039;50.894;6.888;2023-08-17T14:08:40;83.47;;;20.30;;
4049;SDS011;2039;50.894;6.888;2023-08-17T14:11:06;83.60;;;17.60;;
4049;SDS011;2039;50.894;6.888;2023-08-17T14:13:32;84.60;;;19.97;;
4049;SDS011;2039;50.894;6.888;2023-08-17T14:15:59;84.10;;;20.00;;
4049;SDS011;2039;50.894;6.888;2023-08-17T14:18:25;86.87;;;21.80;;
4049;SDS011;2039;50.894;6.888;2023-08-17T14:20:51;83.23;;;17.83;;
4049;SDS011;2039;50.894;6.888;2023-08-17T14:23:17;82.57;;;19.50;;
4049;SDS011;2039;50.894;6.888;2023-08-17T14:25:42;82.50;;;20.37;;
4049;SDS011;2039;50.894;6.888;2023-08-17T14:28:08;83.93;;;21.37;;
4049;SDS011;2039;50.894;6.888;2023-08-17T14:30:34;89.20;;;22.87;;
4049;SDS011;2039;50.894;6.888;2023-08-17T14:32:59;84.43;;;21.10;;
4049;SDS011;2039;50.894;6.888;2023-08-17T14:35:26;84.20;;;24.00;;
4049;SDS011;2039;50.894;6.888;2023-08-17T14:37:52;86.23;;;23.30;;
4049;SDS011;2039;50.894;6.888;2023-08-17T14:40:18;84.83;;;21.10;;
4049;SDS011;2039;50.894;6.888;2023-08-17T14:42:44;82.67;;;21.40;;
4049;SDS011;2039;50.894;6.888;2023-08-17T14:45:10;81.57;;;19.23;;
4049;SDS011;2039;50.894;6.888;2023-08-17T14:47:36;82.40;;;17.77;;
4049;SDS011;2039;50.894;6.888;2023-08-17T14:50:02;81.77;;;18.50;;
4049;SDS011;2039;50.894;6.888;2023-08-17T14:52:28;80.83;;;16.50;;